sensor_id;sensor_type;location;lat;lon;timestamp;pressure;altitude;pressure_sealevel;temperature;humidity
18850;BME280;4989;48.772;9.154;2023-04-12T00:03:12;97510.44;;;11.68;58.39
18850;BME280;4989;48.772;9.154;2023-04-12T00:08:15;97499.00;;;11.61;58.72
18850;BME280;4989;48.772;9.154;2023-04-12T00:13:18;97493.22;;;11.59;58.92
18850;BME280;4989;48.772;9.154;2023-04-12T00:18:21;97488.91;;;11.49;61.01
18850;BME280;4989;48.772;9.154;2023-04-12T00:23:27;97495.19;;;11.71;60.06
18850;BME280;4989;48.772;9.154;2023-04-12T00:28:30;97483.59;;;11.45;62.41
18850;BME280;4989;48.772;9.154;2023-04-12T00:33:35;97480.72;;;11.14;65.79
18850;BME280;4989;48.772;9.154;2023-04-12T00:38:40;97484.88;;;11.06;69.09
18850;BME280;4989;48.772;9.154;2023-04-12T00:43:43;97473.75;;;11.13;72.71
18850;BME280;4989;48.772;9.154;2023-04-12T00:48:46;97466.06;;;10.98;76.14
18850;BME280;4989;48.772;9.154;2023-04-12T00:53:55;97455.59;;;10.97;80.46
18850;BME280;4989;48.772;9.154;2023-04-12T00:59:01;97452.03;;;10.74;82.59
18850;BME280;4989;48.772;9.154;2023-04-12T01:04:04;97441.72;;;10.57;84.91
18850;BME280;4989;48.772;9.154;2023-04-12T01:09:09;97451.16;;;10.39;86.96
18850;BME280;4989;48.772;9.154;2023-04-12T01:14:21;97441.81;;;10.40;88.02
18850;BME280;4989;48.772;9.154;2023-04-12T01:24:45;97426.81;;;10.74;88.49
18850;BME280;4989;48.772;9.154;2023-04-12T01:29:56;97416.59;;;10.78;91.43
18850;BME280;4989;48.772;9.154;2023-04-12T01:35:01;97413.34;;;10.58;91.27
18850;BME280;4989;48.772;9.154;2023-04-12T01:40:06;97407.47;;;10.59;92.77
18850;BME280;4989;48.772;9.154;2023-04-12T01:45:12;97397.47;;;10.43;94.72
18850;BME280;4989;48.772;9.154;2023-04-12T01:50:22;97384.22;;;10.45;94.86
18850;BME280;4989;48.772;9.154;2023-04-12T01:55:29;97379.44;;;10.62;95.29
18850;BME280;4989;48.772;9.154;2023-04-12T02:00:35;97370.81;;;10.76;93.17
18850;BME280;4989;48.772;9.154;2023-04-12T02:05:39;97360.59;;;10.81;95.59
18850;BME280;4989;48.772;9.154;2023-04-12T02:10:41;97347.81;;;10.43;95.97
18850;BME280;4989;48.772;9.154;2023-04-12T02:15:44;97342.47;;;10.14;100.00
18850;BME280;4989;48.772;9.154;2023-04-12T02:20:48;97334.66;;;10.16;100.00
18850;BME280;4989;48.772;9.154;2023-04-12T02:25:51;97328.09;;;9.75;100.00
18850;BME280;4989;48.772;9.154;2023-04-12T02:30:54;97325.78;;;9.48;100.00
18850;BME280;4989;48.772;9.154;2023-04-12T02:35:58;97298.78;;;9.70;100.00
18850;BME280;4989;48.772;9.154;2023-04-12T02:41:00;97305.00;;;9.96;100.00
18850;BME280;4989;48.772;9.154;2023-04-12T02:46:04;97290.19;;;9.58;100.00
18850;BME280;4989;48.772;9.154;2023-04-12T02:51:16;97283.06;;;9.23;100.00
18850;BME280;4989;48.772;9.154;2023-04-12T02:56:23;97277.22;;;9.24;100.00
18850;BME280;4989;48.772;9.154;2023-04-12T03:01:34;97263.16;;;9.00;100.00
18850;BME280;4989;48.772;9.154;2023-04-12T03:07:00;97246.75;;;8.91;100.00
18850;BME280;4989;48.772;9.154;2023-04-12T03:12:13;97230.22;;;8.73;100.00
18850;BME280;4989;48.772;9.154;2023-04-12T03:17:24;97224.78;;;8.73;100.00
18850;BME280;4989;48.772;9.154;2023-04-12T03:22:29;97212.50;;;8.97;100.00
18850;BME280;4989;48.772;9.154;2023-04-12T03:27:34;97211.84;;;8.93;100.00
18850;BME280;4989;48.772;9.154;2023-04-12T03:32:40;97191.97;;;9.25;100.00
18850;BME280;4989;48.772;9.154;2023-04-12T03:37:45;97187.63;;;9.28;100.00
18850;BME280;4989;48.772;9.154;2023-04-12T03:42:49;97188.53;;;9.50;100.00
18850;BME280;4989;48.772;9.154;2023-04-12T03:47:52;97180.34;;;9.12;100.00
18850;BME280;4989;48.772;9.154;2023-04-12T03:52:55;97173.69;;;8.87;100.00
18850;BME280;4989;48.772;9.154;2023-04-12T03:58:04;97154.09;;;9.09;100.00
18850;BME280;4989;48.772;9.154;2023-04-12T04:03:14;97152.25;;;8.93;100.00
18850;BME280;4989;48.772;9.154;2023-04-12T04:08:33;97146.44;;;9.33;100.00
18850;BME280;4989;48.772;9.154;2023-04-12T04:13:36;97144.44;;;8.95;100.00
18850;BME280;4989;48.772;9.154;2023-04-12T04:18:42;97135.63;;;8.78;100.00
18850;BME280;4989;48.772;9.154;2023-04-12T04:23:47;97115.81;;;8.94;100.00
18850;BME280;4989;48.772;9.154;2023-04-12T04:28:53;97114.09;;;9.00;100.00
18850;BME280;4989;48.772;9.154;2023-04-12T04:34:03;97109.41;;;8.75;100.00
18850;BME280;4989;48.772;9.154;2023-04-12T04:39:09;97098.78;;;8.81;100.00
18850;BME280;4989;48.772;9.154;2023-04-12T04:44:14;97098.66;;;8.71;100.00
18850;BME280;4989;48.772;9.154;2023-04-12T04:49:25;97101.50;;;8.81;100.00
18850;BME280;4989;48.772;9.154;2023-04-12T04:54:33;97083.97;;;9.24;100.00
18850;BME280;4989;48.772;9.154;2023-04-12T04:59:36;97093.06;;;9.30;100.00
18850;BME280;4989;48.772;9.154;2023-04-12T05:04:49;97093.19;;;9.26;100.00
18850;BME280;4989;48.772;9.154;2023-04-12T05:09:56;97078.50;;;9.49;100.00
18850;BME280;4989;48.772;9.154;2023-04-12T05:14:59;97081.44;;;10.02;100.00
18850;BME280;4989;48.772;9.154;2023-04-12T05:20:05;97074.78;;;9.69;100.00
18850;BME280;4989;48.772;9.154;2023-04-12T05:25:10;97066.38;;;9.41;100.00
18850;BME280;4989;48.772;9.154;2023-04-12T05:30:20;97069.44;;;9.17;100.00
18850;BME280;4989;48.772;9.154;2023-04-12T05:35:23;97057.47;;;9.40;100.00
18850;BME280;4989;48.772;9.154;2023-04-12T05:40:32;97051.63;;;9.16;100.00
18850;BME280;4989;48.772;9.154;2023-04-12T05:45:36;97035.16;;;9.24;100.00
18850;BME280;4989;48.772;9.154;2023-04-12T05:50:38;97021.28;;;9.22;100.00
18850;BME280;4989;48.772;9.154;2023-04-12T05:55:42;97013.41;;;9.49;100.00
18850;BME280;4989;48.772;9.154;2023-04-12T06:00:45;96999.44;;;9.51;100.00
18850;BME280;4989;48.772;9.154;2023-04-12T06:05:48;96988.69;;;9.47;100.00
18850;BME280;4989;48.772;9.154;2023-04-12T06:10:52;96984.19;;;9.88;100.00
18850;BME280;4989;48.772;9.154;2023-04-12T06:15:55;96977.88;;;9.69;100.00
18850;BME280;4989;48.772;9.154;2023-04-12T06:20:59;96970.06;;;9.93;100.00
18850;BME280;4989;48.772;9.154;2023-04-12T06:26:02;96951.63;;;10.10;100.00
18850;BME280;4989;48.772;9.154;2023-04-12T06:31:05;96957.94;;;10.29;100.00
18850;BME280;4989;48.772;9.154;2023-04-12T06:36:12;96947.38;;;10.31;100.00
18850;BME280;4989;48.772;9.154;2023-04-12T06:41:17;96933.19;;;9.83;100.00
18850;BME280;4989;48.772;9.154;2023-04-12T06:46:27;96919.56;;;9.96;100.00
18850;BME280;4989;48.772;9.154;2023-04-12T06:51:30;96921.38;;;10.21;100.00
18850;BME280;4989;48.772;9.154;2023-04-12T06:56:32;96919.13;;;9.97;100.00
18850;BME280;4989;48.772;9.154;2023-04-12T07:01:35;96903.03;;;9.81;100.00
18850;BME280;4989;48.772;9.154;2023-04-12T07:06:38;96889.53;;;9.90;100.00
18850;BME280;4989;48.772;9.154;2023-04-12T07:11:41;96885.28;;;10.11;100.00
18850;BME280;4989;48.772;9.154;2023-04-12T07:16:44;96873.50;;;10.45;100.00
18850;BME280;4989;48.772;9.154;2023-04-12T07:21:47;96849.47;;;10.84;100.00
18850;BME280;4989;48.772;9.154;2023-04-12T07:26:52;96865.63;;;10.29;100.00
18850;BME280;4989;48.772;9.154;2023-04-12T07:31:57;96848.59;;;10.06;100.00
18850;BME280;4989;48.772;9.154;2023-04-12T07:37:00;96843.19;;;10.16;100.00
18850;BME280;4989;48.772;9.154;2023-04-12T07:42:02;96813.19;;;10.19;100.00
18850;BME280;4989;48.772;9.154;2023-04-12T07:47:05;96781.88;;;10.27;100.00
18850;BME280;4989;48.772;9.154;2023-04-12T07:52:08;96771.53;;;10.53;100.00
18850;BME280;4989;48.772;9.154;2023-04-12T07:57:11;96764.44;;;10.74;100.00
18850;BME280;4989;48.772;9.154;2023-04-12T08:02:14;96759.75;;;10.57;100.00
18850;BME280;4989;48.772;9.154;2023-04-12T08:07:21;96763.06;;;10.79;100.00
18850;BME280;4989;48.772;9.154;2023-04-12T08:12:23;96755.81;;;10.94;100.00
18850;BME280;4989;48.772;9.154;2023-04-12T08:17:26;96758.53;;;10.48;100.00
18850;BME280;4989;48.772;9.154;2023-04-12T08:22:30;96746.72;;;10.33;100.00
18850;BME280;4989;48.772;9.154;2023-04-12T08:27:33;96757.25;;;10.22;100.00
18850;BME280;4989;48.772;9.154;2023-04-12T08:32:36;96750.06;;;10.46;100.00
18850;BME280;4989;48.772;9.154;2023-04-12T08:37:41;96757.31;;;10.59;100.00
18850;BME280;4989;48.772;9.154;2023-04-12T08:42:44;96755.22;;;10.44;100.00
18850;BME280;4989;48.772;9.154;2023-04-12T08:47:47;96746.19;;;10.84;100.00
18850;BME280;4989;48.772;9.154;2023-04-12T08:52:53;96734.81;;;10.95;100.00
18850;BME280;4989;48.772;9.154;2023-04-12T08:57:58;96730.91;;;10.96;100.00
18850;BME280;4989;48.772;9.154;2023-04-12T09:03:01;96739.50;;;10.94;100.00
18850;BME280;4989;48.772;9.154;2023-04-12T09:08:04;96719.28;;;11.05;100.00
18850;BME280;4989;48.772;9.154;2023-04-12T09:13:08;96719.56;;;11.07;100.00
18850;BME280;4989;48.772;9.154;2023-04-12T09:18:11;96702.63;;;11.21;100.00
18850;BME280;4989;48.772;9.154;2023-04-12T09:23:19;96707.28;;;11.72;100.00
18850;BME280;4989;48.772;9.154;2023-04-12T09:28:27;96688.13;;;12.00;100.00
18850;BME280;4989;48.772;9.154;2023-04-12T09:33:38;96689.97;;;11.94;100.00
18850;BME280;4989;48.772;9.154;2023-04-12T09:38:57;96678.31;;;12.41;100.00
18850;BME280;4989;48.772;9.154;2023-04-12T09:44:02;96692.56;;;12.12;100.00
18850;BME280;4989;48.772;9.154;2023-04-12T09:49:05;96693.69;;;12.05;100.00
18850;BME280;4989;48.772;9.154;2023-04-12T09:54:08;96688.53;;;12.07;100.00
18850;BME280;4989;48.772;9.154;2023-04-12T09:59:12;96674.81;;;12.02;100.00
18850;BME280;4989;48.772;9.154;2023-04-12T10:04:16;96666.63;;;12.26;100.00
18850;BME280;4989;48.772;9.154;2023-04-12T10:09:19;96657.81;;;12.46;100.00
18850;BME280;4989;48.772;9.154;2023-04-12T10:14:22;96660.91;;;12.77;100.00
18850;BME280;4989;48.772;9.154;2023-04-12T10:19:26;96650.16;;;13.18;100.00
18850;BME280;4989;48.772;9.154;2023-04-12T10:24:31;96651.69;;;12.90;100.00
18850;BME280;4989;48.772;9.154;2023-04-12T10:29:34;96655.44;;;13.37;100.00
18850;BME280;4989;48.772;9.154;2023-04-12T10:34:41;96652.84;;;14.39;100.00
18850;BME280;4989;48.772;9.154;2023-04-12T10:39:51;96647.31;;;15.06;100.00
18850;BME280;4989;48.772;9.154;2023-04-12T10:44:56;96646.66;;;15.48;98.35
18850;BME280;4989;48.772;9.154;2023-04-12T10:50:23;96652.72;;;14.28;100.00
18850;BME280;4989;48.772;9.154;2023-04-12T10:55:31;96641.28;;;13.68;100.00
18850;BME280;4989;48.772;9.154;2023-04-12T11:06:02;96621.97;;;13.71;100.00
18850;BME280;4989;48.772;9.154;2023-04-12T11:11:44;96607.28;;;15.08;100.00
18850;BME280;4989;48.772;9.154;2023-04-12T11:22:16;96586.97;;;15.21;92.99
18850;BME280;4989;48.772;9.154;2023-04-12T11:27:23;96581.88;;;14.50;95.74
18850;BME280;4989;48.772;9.154;2023-04-12T11:32:28;96577.81;;;14.92;92.76
18850;BME280;4989;48.772;9.154;2023-04-12T11:37:31;96603.94;;;14.67;93.13
18850;BME280;4989;48.772;9.154;2023-04-12T11:42:34;96574.13;;;15.75;84.00
18850;BME280;4989;48.772;9.154;2023-04-12T11:47:41;96575.44;;;17.18;79.51
18850;BME280;4989;48.772;9.154;2023-04-12T11:52:47;96561.16;;;17.43;74.27
18850;BME280;4989;48.772;9.154;2023-04-12T11:57:53;96548.47;;;16.72;78.27
18850;BME280;4989;48.772;9.154;2023-04-12T12:02:57;96553.72;;;17.26;78.06
18850;BME280;4989;48.772;9.154;2023-04-12T12:08:10;96546.16;;;15.60;85.68
18850;BME280;4989;48.772;9.154;2023-04-12T12:13:13;96558.84;;;16.12;80.70
18850;BME280;4989;48.772;9.154;2023-04-12T12:18:16;96555.50;;;15.85;79.14
18850;BME280;4989;48.772;9.154;2023-04-12T12:23:42;96537.53;;;15.78;78.67
18850;BME280;4989;48.772;9.154;2023-04-12T12:28:49;96543.53;;;15.34;80.96
18850;BME280;4989;48.772;9.154;2023-04-12T12:33:54;96537.88;;;16.03;82.00
18850;BME280;4989;48.772;9.154;2023-04-12T12:39:09;96533.41;;;17.52;76.60
18850;BME280;4989;48.772;9.154;2023-04-12T12:44:13;96528.56;;;17.92;70.54
18850;BME280;4989;48.772;9.154;2023-04-12T12:49:16;96515.81;;;18.36;69.06
18850;BME280;4989;48.772;9.154;2023-04-12T12:54:19;96520.28;;;16.55;75.22
18850;BME280;4989;48.772;9.154;2023-04-12T12:59:41;96505.25;;;16.11;76.78
18850;BME280;4989;48.772;9.154;2023-04-12T13:04:43;96515.34;;;15.71;79.81
18850;BME280;4989;48.772;9.154;2023-04-12T13:09:46;96518.75;;;16.20;77.55
18850;BME280;4989;48.772;9.154;2023-04-12T13:14:49;96522.28;;;17.05;73.95
18850;BME280;4989;48.772;9.154;2023-04-12T13:19:52;96508.31;;;16.46;76.21
18850;BME280;4989;48.772;9.154;2023-04-12T13:24:55;96500.03;;;16.07;78.69
18850;BME280;4989;48.772;9.154;2023-04-12T13:29:58;96490.25;;;15.89;78.17
18850;BME280;4989;48.772;9.154;2023-04-12T13:35:01;96485.25;;;15.82;78.10
18850;BME280;4989;48.772;9.154;2023-04-12T13:40:05;96482.09;;;16.23;76.73
18850;BME280;4989;48.772;9.154;2023-04-12T13:45:08;96453.94;;;16.73;74.38
18850;BME280;4989;48.772;9.154;2023-04-12T13:50:12;96457.69;;;16.53;76.35
18850;BME280;4989;48.772;9.154;2023-04-12T13:55:15;96465.41;;;16.10;76.80
18850;BME280;4989;48.772;9.154;2023-04-12T14:00:18;96463.31;;;15.82;78.60
18850;BME280;4989;48.772;9.154;2023-04-12T14:05:21;96462.09;;;15.94;78.32
18850;BME280;4989;48.772;9.154;2023-04-12T14:10:24;96461.88;;;16.09;78.37
18850;BME280;4989;48.772;9.154;2023-04-12T14:15:26;96455.41;;;17.08;73.80
18850;BME280;4989;48.772;9.154;2023-04-12T14:20:29;96450.09;;;18.62;64.94
18850;BME280;4989;48.772;9.154;2023-04-12T14:25:32;96437.47;;;18.12;66.38
18850;BME280;4989;48.772;9.154;2023-04-12T14:30:36;96434.38;;;17.27;69.18
18850;BME280;4989;48.772;9.154;2023-04-12T14:35:39;96431.00;;;16.76;72.80
18850;BME280;4989;48.772;9.154;2023-04-12T14:40:43;96424.00;;;16.75;72.69
18850;BME280;4989;48.772;9.154;2023-04-12T14:45:45;96422.03;;;16.81;73.04
18850;BME280;4989;48.772;9.154;2023-04-12T14:50:48;96429.00;;;16.82;71.29
18850;BME280;4989;48.772;9.154;2023-04-12T14:55:50;96429.75;;;16.71;71.69
18850;BME280;4989;48.772;9.154;2023-04-12T15:00:54;96422.78;;;16.25;72.71
18850;BME280;4989;48.772;9.154;2023-04-12T15:05:57;96425.03;;;16.16;73.50
18850;BME280;4989;48.772;9.154;2023-04-12T15:11:00;96427.25;;;16.12;73.76
18850;BME280;4989;48.772;9.154;2023-04-12T15:16:04;96460.59;;;15.82;78.90
18850;BME280;4989;48.772;9.154;2023-04-12T15:21:11;96563.81;;;15.16;93.18
18850;BME280;4989;48.772;9.154;2023-04-12T15:26:14;96553.41;;;13.49;100.00
18850;BME280;4989;48.772;9.154;2023-04-12T15:31:17;96562.22;;;13.09;100.00
18850;BME280;4989;48.772;9.154;2023-04-12T15:36:20;96574.00;;;13.00;100.00
18850;BME280;4989;48.772;9.154;2023-04-12T15:41:23;96567.38;;;12.71;100.00
18850;BME280;4989;48.772;9.154;2023-04-12T15:46:26;96580.78;;;12.60;100.00
18850;BME280;4989;48.772;9.154;2023-04-12T15:51:29;96565.38;;;12.87;100.00
18850;BME280;4989;48.772;9.154;2023-04-12T15:56:33;96550.47;;;13.17;100.00
18850;BME280;4989;48.772;9.154;2023-04-12T16:01:37;96548.34;;;12.92;100.00
18850;BME280;4989;48.772;9.154;2023-04-12T16:06:40;96552.34;;;13.11;100.00
18850;BME280;4989;48.772;9.154;2023-04-12T16:11:43;96559.84;;;13.31;100.00
18850;BME280;4989;48.772;9.154;2023-04-12T16:16:48;96560.75;;;13.43;100.00
18850;BME280;4989;48.772;9.154;2023-04-12T16:21:51;96575.09;;;13.38;100.00
18850;BME280;4989;48.772;9.154;2023-04-12T16:26:54;96582.75;;;13.54;100.00
18850;BME280;4989;48.772;9.154;2023-04-12T16:31:56;96580.44;;;13.47;100.00
18850;BME280;4989;48.772;9.154;2023-04-12T16:36:59;96581.41;;;13.14;100.00
18850;BME280;4989;48.772;9.154;2023-04-12T16:42:02;96580.41;;;12.97;100.00
18850;BME280;4989;48.772;9.154;2023-04-12T16:47:07;96571.16;;;13.09;100.00
18850;BME280;4989;48.772;9.154;2023-04-12T16:52:11;96561.78;;;12.95;100.00
18850;BME280;4989;48.772;9.154;2023-04-12T16:57:13;96559.50;;;13.09;100.00
18850;BME280;4989;48.772;9.154;2023-04-12T17:02:16;96558.19;;;13.04;100.00
18850;BME280;4989;48.772;9.154;2023-04-12T17:07:19;96569.88;;;13.04;100.00
18850;BME280;4989;48.772;9.154;2023-04-12T17:12:23;96577.59;;;12.91;100.00
18850;BME280;4989;48.772;9.154;2023-04-12T17:17:25;96580.28;;;13.06;100.00
18850;BME280;4989;48.772;9.154;2023-04-12T17:22:29;96602.31;;;13.02;100.00
18850;BME280;4989;48.772;9.154;2023-04-12T17:27:33;96618.03;;;12.93;99.05
18850;BME280;4989;48.772;9.154;2023-04-12T17:32:36;96605.59;;;12.92;98.80
18850;BME280;4989;48.772;9.154;2023-04-12T17:37:39;96612.84;;;12.65;98.98
18850;BME280;4989;48.772;9.154;2023-04-12T17:42:43;96616.88;;;12.70;98.28
18850;BME280;4989;48.772;9.154;2023-04-12T17:47:45;96627.59;;;12.73;97.06
18850;BME280;4989;48.772;9.154;2023-04-12T17:52:48;96622.63;;;12.72;96.32
18850;BME280;4989;48.772;9.154;2023-04-12T17:57:51;96620.25;;;12.50;99.14
18850;BME280;4989;48.772;9.154;2023-04-12T18:02:54;96587.75;;;12.61;97.83
18850;BME280;4989;48.772;9.154;2023-04-12T18:07:57;96586.78;;;12.34;99.97
18850;BME280;4989;48.772;9.154;2023-04-12T18:13:00;96599.47;;;12.37;100.00
18850;BME280;4989;48.772;9.154;2023-04-12T18:18:03;96622.44;;;11.74;100.00
18850;BME280;4989;48.772;9.154;2023-04-12T18:23:06;96620.53;;;11.65;100.00
18850;BME280;4989;48.772;9.154;2023-04-12T18:28:09;96624.22;;;11.53;100.00
18850;BME280;4989;48.772;9.154;2023-04-12T18:33:12;96630.06;;;11.27;100.00
18850;BME280;4989;48.772;9.154;2023-04-12T18:38:15;96639.97;;;11.06;100.00
18850;BME280;4989;48.772;9.154;2023-04-12T18:43:18;96644.78;;;11.11;100.00
18850;BME280;4989;48.772;9.154;2023-04-12T18:48:21;96640.16;;;10.93;100.00
18850;BME280;4989;48.772;9.154;2023-04-12T18:53:24;96653.75;;;10.93;100.00
18850;BME280;4989;48.772;9.154;2023-04-12T18:58:27;96665.84;;;10.74;100.00
18850;BME280;4989;48.772;9.154;2023-04-12T19:03:47;96661.19;;;10.74;100.00
18850;BME280;4989;48.772;9.154;2023-04-12T19:08:50;96667.81;;;10.64;100.00
18850;BME280;4989;48.772;9.154;2023-04-12T19:13:53;96674.47;;;10.54;100.00
18850;BME280;4989;48.772;9.154;2023-04-12T19:18:57;96675.53;;;10.66;100.00
18850;BME280;4989;48.772;9.154;2023-04-12T19:24:01;96686.41;;;10.66;100.00
18850;BME280;4989;48.772;9.154;2023-04-12T19:29:04;96681.88;;;10.63;100.00
18850;BME280;4989;48.772;9.154;2023-04-12T19:34:07;96696.66;;;10.62;100.00
18850;BME280;4989;48.772;9.154;2023-04-12T19:39:11;96702.38;;;10.73;100.00
18850;BME280;4989;48.772;9.154;2023-04-12T19:44:14;96703.59;;;10.81;100.00
18850;BME280;4989;48.772;9.154;2023-04-12T19:49:17;96719.28;;;10.77;100.00
18850;BME280;4989;48.772;9.154;2023-04-12T19:54:20;96704.19;;;10.85;100.00
18850;BME280;4989;48.772;9.154;2023-04-12T19:59:27;96696.03;;;10.85;100.00
18850;BME280;4989;48.772;9.154;2023-04-12T20:04:32;96677.16;;;10.82;100.00
18850;BME280;4989;48.772;9.154;2023-04-12T20:09:35;96690.59;;;10.76;100.00
18850;BME280;4989;48.772;9.154;2023-04-12T20:14:38;96690.75;;;10.82;100.00
18850;BME280;4989;48.772;9.154;2023-04-12T20:19:41;96684.84;;;10.83;100.00
18850;BME280;4989;48.772;9.154;2023-04-12T20:24:44;96695.72;;;10.83;100.00
18850;BME280;4989;48.772;9.154;2023-04-12T20:29:48;96729.56;;;10.73;100.00
18850;BME280;4989;48.772;9.154;2023-04-12T20:34:52;96739.38;;;10.80;100.00
18850;BME280;4989;48.772;9.154;2023-04-12T20:39:54;96753.41;;;10.87;100.00
18850;BME280;4989;48.772;9.154;2023-04-12T20:44:58;96778.78;;;10.93;100.00
18850;BME280;4989;48.772;9.154;2023-04-12T20:50:00;96826.47;;;10.58;100.00
18850;BME280;4989;48.772;9.154;2023-04-12T20:55:04;96837.97;;;10.80;100.00
18850;BME280;4989;48.772;9.154;2023-04-12T21:00:08;96860.34;;;10.03;100.00
18850;BME280;4989;48.772;9.154;2023-04-12T21:05:19;96844.31;;;9.43;100.00
18850;BME280;4989;48.772;9.154;2023-04-12T21:10:22;96842.75;;;9.11;100.00
18850;BME280;4989;48.772;9.154;2023-04-12T21:15:25;96814.63;;;9.17;100.00
18850;BME280;4989;48.772;9.154;2023-04-12T21:20:27;96785.69;;;9.14;100.00
18850;BME280;4989;48.772;9.154;2023-04-12T21:25:32;96793.81;;;9.14;100.00
18850;BME280;4989;48.772;9.154;2023-04-12T21:30:35;96790.59;;;9.29;100.00
18850;BME280;4989;48.772;9.154;2023-04-12T21:35:38;96785.00;;;9.23;100.00
18850;BME280;4989;48.772;9.154;2023-04-12T21:40:41;96812.84;;;9.24;100.00
18850;BME280;4989;48.772;9.154;2023-04-12T21:45:44;96813.75;;;9.21;100.00
18850;BME280;4989;48.772;9.154;2023-04-12T21:50:47;96815.50;;;9.14;100.00
18850;BME280;4989;48.772;9.154;2023-04-12T21:55:50;96808.56;;;9.13;100.00
18850;BME280;4989;48.772;9.154;2023-04-12T22:00:53;96817.81;;;9.03;100.00
18850;BME280;4989;48.772;9.154;2023-04-12T22:05:56;96829.53;;;9.00;100.00
18850;BME280;4989;48.772;9.154;2023-04-12T22:11:06;96836.31;;;9.17;100.00
18850;BME280;4989;48.772;9.154;2023-04-12T22:16:11;96850.44;;;9.34;100.00
18850;BME280;4989;48.772;9.154;2023-04-12T22:21:15;96868.72;;;9.43;100.00
18850;BME280;4989;48.772;9.154;2023-04-12T22:26:18;96865.59;;;9.45;100.00
18850;BME280;4989;48.772;9.154;2023-04-12T22:31:20;96883.28;;;9.58;100.00
18850;BME280;4989;48.772;9.154;2023-04-12T22:36:24;96885.38;;;9.54;100.00
18850;BME280;4989;48.772;9.154;2023-04-12T22:41:30;96893.03;;;9.69;100.00
18850;BME280;4989;48.772;9.154;2023-04-12T22:46:35;96888.41;;;9.56;100.00
18850;BME280;4989;48.772;9.154;2023-04-12T22:51:41;96895.97;;;9.61;100.00
18850;BME280;4989;48.772;9.154;2023-04-12T22:56:44;96893.31;;;9.71;100.00
18850;BME280;4989;48.772;9.154;2023-04-12T23:01:47;96892.06;;;9.84;100.00
18850;BME280;4989;48.772;9.154;2023-04-12T23:06:52;96893.84;;;9.56;100.00
18850;BME280;4989;48.772;9.154;2023-04-12T23:11:58;96885.13;;;9.39;100.00
18850;BME280;4989;48.772;9.154;2023-04-12T23:17:01;96889.78;;;9.17;100.00
18850;BME280;4989;48.772;9.154;2023-04-12T23:22:03;96895.53;;;9.06;100.00
18850;BME280;4989;48.772;9.154;2023-04-12T23:27:06;96876.38;;;9.01;100.00
18850;BME280;4989;48.772;9.154;2023-04-12T23:32:09;96866.78;;;8.74;100.00
18850;BME280;4989;48.772;9.154;2023-04-12T23:37:13;96859.75;;;8.64;100.00
18850;BME280;4989;48.772;9.154;2023-04-12T23:42:16;96862.81;;;8.66;100.00
18850;BME280;4989;48.772;9.154;2023-04-12T23:47:19;96861.94;;;8.69;100.00
18850;BME280;4989;48.772;9.154;2023-04-12T23:52:21;96888.25;;;8.68;100.00
18850;BME280;4989;48.772;9.154;2023-04-12T23:57:24;96879.56;;;8.74;100.00
